Time;durP1;ratioP1;P1;durP2;ratioP2;P2;SDS_P1;SDS_P2;PMS_P1;PMS_P2;Temp;Humidity;BMP_temperature;BMP_pressure;BME280_temperature;BME280_humidity;BME280_pressure;Samples;Min_cycle;Max_cycle;Signal;HPM_P1;HPM_P2
2023/12/06 00:02:27;;;;;;;6.40;4.03;;;;;;;-11.13;59.40;96615.31;6245956;28;20144;-70
2023/12/06 00:05:30;;;;;;;6.63;4.15;;;;;;;-11.02;59.53;96623.94;6246135;28;20511;-69
2023/12/06 00:08:34;;;;;;;5.45;3.67;;;;;;;-10.99;59.37;96618.91;6246591;28;20042;-69
2023/12/06 00:11:36;;;;;;;5.95;4.15;;;;;;;-10.97;59.44;96608.78;6245567;28;20088;-70
2023/12/06 00:14:41;;;;;;;5.65;3.33;;;;;;;-10.89;59.46;96620.75;6245639;28;20160;-71
2023/12/06 00:17:45;;;;;;;7.05;4.03;;;;;;;-10.60;58.41;96627.94;6245510;28;20049;-70
2023/12/06 00:20:53;;;;;;;5.38;3.75;;;;;;;-10.65;58.94;96629.56;6246364;28;20053;-70
2023/12/06 00:23:55;;;;;;;5.53;3.70;;;;;;;-10.66;58.71;96632.94;6245650;28;20041;-71
2023/12/06 00:26:56;;;;;;;4.03;3.15;;;;;;;-10.66;59.07;96622.78;6245631;28;20080;-69
2023/12/06 00:30:03;;;;;;;7.20;4.22;;;;;;;-10.63;58.70;96638.06;6246321;28;20076;-70
2023/12/06 00:33:09;;;;;;;8.35;4.45;;;;;;;-10.64;58.88;96646.53;6245370;28;20056;-69
2023/12/06 00:36:11;;;;;;;7.20;4.40;;;;;;;-10.75;58.98;96648.06;6244899;28;20049;-70
2023/12/06 00:39:15;;;;;;;6.63;3.90;;;;;;;-10.90;59.39;96634.31;6245942;28;20053;-69
2023/12/06 00:42:20;;;;;;;;;;;;;;;-10.79;59.33;96648.84;6246338;28;20042;-68
2023/12/06 00:45:21;;;;;;;7.15;4.20;;;;;;;-10.77;59.54;96639.56;6227638;28;19944;-69
2023/12/06 00:48:23;;;;;;;9.43;4.25;;;;;;;-10.77;59.50;96634.47;6245285;28;20427;-70
2023/12/06 00:51:24;;;;;;;6.40;3.47;;;;;;;-10.77;59.49;96634.47;6244489;28;20426;-69
2023/12/06 00:54:26;;;;;;;5.35;3.70;;;;;;;-10.90;58.96;96619.06;6245393;28;20450;-70
2023/12/06 00:57:28;;;;;;;4.95;3.40;;;;;;;-10.73;59.37;96642.16;6227738;28;20240;-69
2023/12/06 01:00:32;;;;;;;5.65;3.30;;;;;;;-10.80;59.44;96647.16;6244116;28;20056;-71
2023/12/06 01:03:34;;;;;;;5.43;3.38;;;;;;;-10.91;59.26;96637.66;6244796;28;20060;-70
2023/12/06 01:06:38;;;;;;;6.82;3.60;;;;;;;-10.99;59.37;96634.16;6228194;28;20056;-69
2023/12/06 01:09:41;;;;;;;4.80;3.38;;;;;;;-11.37;59.42;96587.88;6227337;28;20053;-71
2023/12/06 01:12:42;;;;;;;;;;;;;;;-10.91;59.62;96657.16;6244971;28;20434;-69
2023/12/06 01:15:44;;;;;;;7.00;3.65;;;;;;;-10.88;59.26;96659.75;6244303;28;20398;-70
2023/12/06 01:18:48;;;;;;;4.88;3.30;;;;;;;-10.86;59.47;96671.63;6245287;28;20045;-70
2023/12/06 01:21:51;;;;;;;5.45;3.67;;;;;;;-10.79;59.26;96676.81;6244542;28;20410;-70
2023/12/06 01:24:59;;;;;;;;;;;;;;;-10.71;59.37;96675.25;6244893;28;20151;-70
2023/12/06 01:28:03;;;;;;;6.55;3.00;;;;;;;-10.63;58.58;96683.84;6245159;28;19925;-70
2023/12/06 01:31:08;;;;;;;;;;;;;;;-10.63;58.43;96676.22;6245293;28;20562;-70
2023/12/06 01:34:12;;;;;;;3.90;2.63;;;;;;;-10.66;58.49;96668.53;6244260;28;19920;-71
2023/12/06 01:37:13;;;;;;;6.60;3.75;;;;;;;-10.73;57.90;96633.69;6244243;28;20045;-69
2023/12/06 01:40:17;;;;;;;;;;;;;;;-10.44;57.83;96687.50;6245130;28;20049;-70
2023/12/06 01:43:23;;;;;;;6.55;3.55;;;;;;;-10.44;57.32;96680.72;6244462;28;20405;-70
2023/12/06 01:46:25;;;;;;;4.75;3.50;;;;;;;-10.42;57.33;96688.34;6244059;28;20045;-68
2023/12/06 01:49:27;;;;;;;3.88;2.47;;;;;;;-10.38;57.54;96684.19;6243751;28;20046;-70
2023/12/06 01:52:32;;;;;;;6.10;3.80;;;;;;;-10.34;57.58;96685.91;6244101;28;20088;-70
2023/12/06 01:55:38;;;;;;;10.15;4.18;;;;;;;-10.33;57.83;96685.97;6226537;28;20140;-70
2023/12/06 01:58:46;;;;;;;4.97;3.78;;;;;;;-10.26;57.69;96686.84;6244327;28;20045;-70
2023/12/06 02:01:47;;;;;;;3.38;3.00;;;;;;;-10.13;56.78;96676.00;6243579;28;20052;-70
2023/12/06 02:04:52;;;;;;;5.82;3.88;;;;;;;-10.12;56.43;96682.78;6229169;28;20049;-70
2023/12/06 02:07:56;;;;;;;5.38;3.72;;;;;;;-10.22;56.50;96686.91;6248500;28;20127;-71
2023/12/06 02:10:58;;;;;;;3.78;2.75;;;;;;;-10.12;56.59;96702.31;6248118;28;20041;-71
2023/12/06 02:14:02;;;;;;;5.93;2.80;;;;;;;-10.07;56.34;96683.72;6249078;28;20053;-70
2023/12/06 02:17:10;;;;;;;5.68;4.03;;;;;;;-10.11;55.52;96676.84;6249129;28;20045;-70
2023/12/06 02:20:15;;;;;;;5.55;3.75;;;;;;;-10.04;55.48;96696.47;6249049;28;20038;-70
2023/12/06 02:23:30;;;;;;;5.30;3.95;;;;;;;-10.06;55.58;96703.22;6249190;28;20426;-70
2023/12/06 02:26:35;;;;;;;8.38;4.85;;;;;;;-10.06;56.05;96715.94;6248792;28;20060;-70
2023/12/06 02:29:37;;;;;;;6.53;3.75;;;;;;;-10.05;55.34;96710.00;6248078;28;20419;-69
2023/12/06 02:32:43;;;;;;;7.20;4.43;;;;;;;-10.10;55.49;96711.66;6248935;28;20527;-70
2023/12/06 02:35:52;;;;;;;3.95;3.20;;;;;;;-10.10;55.25;96706.56;6248593;28;20049;-69
2023/12/06 02:38:55;;;;;;;6.68;3.80;;;;;;;-10.08;54.81;96721.84;6248505;28;20534;-70
2023/12/06 02:42:02;;;;;;;4.47;3.08;;;;;;;-10.25;54.48;96716.53;6248499;28;20088;-70
2023/12/06 02:45:06;;;;;;;4.80;3.67;;;;;;;-10.18;53.45;96713.25;6229837;28;20049;-71
2023/12/06 02:48:10;;;;;;;5.35;3.42;;;;;;;-10.30;53.02;96736.00;6247480;28;20525;-70
2023/12/06 02:51:11;;;;;;;;;;;;;;;-10.15;52.28;96733.66;6248582;28;20045;-70
2023/12/06 02:54:13;;;;;;;6.45;3.63;;;;;;;-10.34;52.05;96739.34;6247376;28;19921;-69
2023/12/06 02:57:18;;;;;;;11.80;2.45;;;;;;;-10.32;51.36;96745.31;6247303;28;20423;-70
2023/12/06 03:00:19;;;;;;;6.72;2.42;;;;;;;-10.49;50.99;96745.91;6247774;28;20390;-71
2023/12/06 03:03:26;;;;;;;3.67;2.88;;;;;;;-10.55;51.54;96740.75;6248182;28;20041;-70
2023/12/06 03:06:30;;;;;;;5.50;3.58;;;;;;;-10.65;51.56;96737.19;6247890;28;20490;-71
2023/12/06 03:09:39;;;;;;;5.30;3.40;;;;;;;-10.63;51.32;96755.03;6247659;28;20140;-70
2023/12/06 03:12:43;;;;;;;5.07;2.50;;;;;;;-10.60;51.31;96744.03;6247839;28;20041;-71
2023/12/06 03:15:47;;;;;;;6.00;3.28;;;;;;;-10.71;51.11;96749.81;6246258;28;20068;-70
2023/12/06 03:18:51;;;;;;;5.13;3.63;;;;;;;-10.85;51.36;96744.50;6247605;28;20045;-71
2023/12/06 03:21:52;;;;;;;5.35;3.47;;;;;;;-10.83;51.28;96771.66;6246649;28;20049;-70
2023/12/06 03:24:56;;;;;;;5.63;3.72;;;;;;;-10.89;51.62;96768.16;6247819;28;20045;-71
2023/12/06 03:27:58;;;;;;;6.97;3.50;;;;;;;-11.00;51.87;96774.75;6247027;28;20542;-71
2023/12/06 03:31:02;;;;;;;5.05;3.30;;;;;;;-11.12;52.36;96779.63;6247171;28;20041;-72
2023/12/06 03:34:05;;;;;;;5.32;3.17;;;;;;;-11.18;52.81;96782.03;6247017;28;20068;-71
2023/12/06 03:37:09;;;;;;;5.18;3.45;;;;;;;-11.21;52.64;96794.69;6247617;28;20045;-70
2023/12/06 03:40:13;;;;;;;3.75;2.55;;;;;;;-11.31;52.98;96798.75;6229951;28;20049;-69
2023/12/06 03:43:20;;;;;;;4.95;2.80;;;;;;;-11.25;53.07;96810.69;6247243;28;20037;-70
2023/12/06 03:46:22;;;;;;;6.60;3.50;;;;;;;-11.15;52.20;96813.44;6246784;28;20034;-70
2023/12/06 03:49:28;;;;;;;8.70;3.78;;;;;;;-11.25;52.80;96813.25;6246827;28;20045;-69
2023/12/06 03:52:34;;;;;;;3.53;2.55;;;;;;;-11.40;53.31;96819.75;6246918;28;20053;-71
2023/12/06 03:55:36;;;;;;;7.10;4.20;;;;;;;-11.44;53.41;96837.41;6245533;28;20061;-70
2023/12/06 03:58:38;;;;;;;5.57;3.75;;;;;;;-11.64;53.83;96839.56;6228888;28;20140;-70
2023/12/06 04:01:45;;;;;;;7.47;3.90;;;;;;;-11.81;54.38;96852.72;6246366;28;20117;-71
2023/12/06 04:04:52;;;;;;;7.25;3.92;;;;;;;-11.72;54.84;96868.97;6246195;28;20052;-69
2023/12/06 04:07:56;;;;;;;5.85;3.08;;;;;;;-11.64;54.90;96875.09;6245889;28;20050;-70
2023/12/06 04:11:03;;;;;;;4.75;3.40;;;;;;;-11.56;55.22;96883.72;6246639;28;20049;-70
2023/12/06 04:14:07;;;;;;;9.43;4.07;;;;;;;-11.51;55.09;96889.75;6245963;28;20639;-70
2023/12/06 04:17:14;;;;;;;7.18;3.75;;;;;;;-11.39;55.07;96892.56;6246141;28;20503;-70
2023/12/06 04:20:15;;;;;;;5.07;3.90;;;;;;;-11.28;55.32;96909.69;6245299;28;20107;-70
2023/12/06 04:23:17;;;;;;;4.55;3.55;;;;;;;-11.13;54.89;96904.91;6245779;28;20428;-71
2023/12/06 04:26:21;;;;;;;6.25;4.13;;;;;;;-11.03;54.99;96916.13;6244683;28;20056;-70
2023/12/06 04:29:28;;;;;;;8.23;3.60;;;;;;;-10.93;54.78;96911.25;6245581;28;20053;-70
2023/12/06 04:32:35;;;;;;;4.90;3.50;;;;;;;-10.75;54.67;96922.63;6246030;28;20045;-70
2023/12/06 04:35:39;;;;;;;5.97;4.03;;;;;;;-10.61;54.61;96926.25;6245923;28;20495;-70
2023/12/06 04:38:41;;;;;;;7.50;4.13;;;;;;;-10.50;54.39;96919.69;6246111;28;20466;-71
2023/12/06 04:41:49;;;;;;;5.13;3.63;;;;;;;-10.31;53.99;96930.16;6246007;28;20037;-70
2023/12/06 04:44:53;;;;;;;5.72;3.88;;;;;;;-10.23;53.92;96938.75;6245780;28;20041;-69
2023/12/06 04:47:56;;;;;;;6.35;3.42;;;;;;;-10.10;53.92;96925.41;6245495;28;20422;-70
2023/12/06 04:51:04;;;;;;;5.50;3.45;;;;;;;-10.05;53.77;96928.88;6245784;28;20057;-70
2023/12/06 04:54:10;;;;;;;5.03;3.45;;;;;;;-9.75;53.46;96942.94;6245667;28;20061;-71
2023/12/06 04:57:14;;;;;;;5.32;3.35;;;;;;;-9.47;52.97;96941.66;6245585;28;20049;-70
2023/12/06 05:00:18;;;;;;;;;;;;;;;-9.20;52.96;96943.72;6245694;28;20041;-70
2023/12/06 05:03:24;;;;;;;10.55;4.97;;;;;;;-9.00;51.99;96945.66;6227750;28;19917;-71
2023/12/06 05:06:25;;;;;;;5.88;4.13;;;;;;;-8.86;51.63;96951.78;6245187;28;20037;-71
2023/12/06 05:09:28;;;;;;;7.03;3.88;;;;;;;-8.82;51.27;96956.94;6245100;28;20036;-69
2023/12/06 05:12:34;;;;;;;8.68;3.85;;;;;;;-8.94;51.30;96950.88;6244971;28;20041;-70
2023/12/06 05:15:39;;;;;;;7.47;4.07;;;;;;;-8.88;50.81;96958.59;6244258;28;20053;-70
2023/12/06 05:18:43;;;;;;;8.82;5.03;;;;;;;-8.85;50.43;96961.16;6244616;28;20503;-70
2023/12/06 05:21:45;;;;;;;7.78;4.28;;;;;;;-8.76;48.35;96945.97;6227102;28;20072;-71
2023/12/06 05:24:49;;;;;;;5.38;3.50;;;;;;;-8.92;48.50;96969.56;6244708;28;20187;-70
2023/12/06 05:27:56;;;;;;;3.10;2.72;;;;;;;-9.01;48.84;96980.50;6244681;28;20049;-70
2023/12/06 05:31:03;;;;;;;4.47;3.25;;;;;;;-9.08;48.96;96989.78;6244265;28;20033;-70
2023/12/06 05:34:07;;;;;;;4.53;2.55;;;;;;;-9.14;48.46;97007.53;6244565;28;20045;-70
2023/12/06 05:37:12;;;;;;;5.15;2.97;;;;;;;-9.17;48.12;97009.16;6244394;28;20045;-71
2023/12/06 05:40:15;;;;;;;4.15;3.45;;;;;;;-9.15;49.39;97018.53;6244777;28;20045;-70
2023/12/06 05:43:24;;;;;;;5.53;3.55;;;;;;;-8.86;49.07;97030.84;6244693;28;20045;-70
2023/12/06 05:46:28;;;;;;;7.50;3.47;;;;;;;-8.56;48.72;97035.50;6244049;28;20053;-71
2023/12/06 05:49:32;;;;;;;5.00;2.38;;;;;;;-8.51;48.40;97033.84;6244825;28;20041;-70
2023/12/06 05:52:39;;;;;;;6.82;3.50;;;;;;;-8.50;47.31;97037.25;6243940;28;20073;-70
2023/12/06 05:55:43;;;;;;;5.78;3.15;;;;;;;-8.54;46.98;97038.06;6244206;28;20037;-70
2023/12/06 05:58:50;;;;;;;5.60;4.10;;;;;;;-8.74;47.02;97035.28;6244463;28;20041;-71
2023/12/06 06:01:53;;;;;;;8.35;4.38;;;;;;;-8.88;47.16;97052.94;6226990;28;20046;-71
2023/12/06 06:04:57;;;;;;;5.47;2.88;;;;;;;-8.92;46.81;97056.25;6244201;28;20053;-70
2023/12/06 06:08:02;;;;;;;7.88;4.38;;;;;;;-9.12;47.22;97064.47;6243870;28;20491;-70
2023/12/06 06:11:04;;;;;;;4.03;3.13;;;;;;;-9.21;47.61;97069.44;6244319;28;20491;-71
2023/12/06 06:14:06;;;;;;;9.23;4.05;;;;;;;-9.27;47.39;97084.63;6243841;28;20052;-70
2023/12/06 06:17:12;;;;;;;4.28;3.88;;;;;;;-9.36;46.73;97084.50;6227026;28;20092;-70
2023/12/06 06:20:13;;;;;;;5.68;3.70;;;;;;;-9.43;46.88;97077.56;6244058;28;20052;-69
2023/12/06 06:23:17;;;;;;;5.70;3.70;;;;;;;-9.66;47.26;97087.38;6243387;28;20056;-69
2023/12/06 06:26:18;;;;;;;;;;;;;;;-9.70;47.18;97090.72;6244096;28;20458;-70
2023/12/06 06:29:22;;;;;;;3.58;2.42;;;;;;;-9.80;47.31;97093.06;6242806;28;19921;-70
2023/12/06 06:32:29;;;;;;;7.20;3.55;;;;;;;-10.00;47.40;97097.78;6244187;28;20037;-70
2023/12/06 06:35:35;;;;;;;7.57;4.10;;;;;;;-10.10;47.60;97113.75;6243416;28;20057;-71
2023/12/06 06:38:41;;;;;;;5.22;3.72;;;;;;;-10.05;47.76;97111.25;6243376;28;20049;-70
2023/12/06 06:41:46;;;;;;;4.82;3.55;;;;;;;-9.88;47.10;97117.53;6244052;28;20042;-70
2023/12/06 06:44:55;;;;;;;7.10;4.20;;;;;;;-9.78;47.15;97128.75;6243830;28;20045;-70
2023/12/06 06:48:01;;;;;;;4.85;3.83;;;;;;;-9.58;46.95;97119.78;6243525;28;20045;-69
2023/12/06 06:51:04;;;;;;;7.88;4.35;;;;;;;-9.29;46.89;97121.97;6228422;28;20328;-70
2023/12/06 06:54:10;;;;;;;5.28;4.00;;;;;;;-8.92;46.63;97132.75;6248100;28;20053;-70
2023/12/06 06:57:18;;;;;;;4.80;3.80;;;;;;;-8.87;46.45;97131.13;6230116;28;20091;-70
2023/12/06 07:00:20;;;;;;;7.10;4.72;;;;;;;-8.86;46.61;97138.81;6246882;28;20054;-71
2023/12/06 07:03:25;;;;;;;10.55;5.13;;;;;;;-8.79;47.20;97144.88;6230988;28;20041;-70
2023/12/06 07:06:32;;;;;;;8.05;4.63;;;;;;;-8.71;46.56;97138.19;6248085;28;20112;-71
2023/12/06 07:09:33;;;;;;;5.00;4.38;;;;;;;-8.61;47.00;97139.16;6248287;28;20487;-70
2023/12/06 07:12:41;;;;;;;6.72;4.30;;;;;;;-5.46;44.28;97146.00;6230324;28;20108;-71
2023/12/06 07:15:42;;;;;;;4.68;3.08;;;;;;;-0.05;37.97;97153.72;6247765;28;20142;-71
2023/12/06 07:18:45;;;;;;;6.43;3.95;;;;;;;3.98;33.26;97150.06;6247048;28;20132;-70
2023/12/06 07:21:52;;;;;;;4.97;2.78;;;;;;;7.28;29.94;97164.63;6248189;28;20499;-71
2023/12/06 07:24:55;;;;;;;5.47;2.90;;;;;;;8.42;28.28;97166.00;6247852;28;20038;-71
2023/12/06 07:27:57;;;;;;;5.30;3.30;;;;;;;8.72;26.04;97158.31;6247930;28;20535;-69
2023/12/06 07:30:59;;;;;;;5.63;3.35;;;;;;;8.28;25.34;97168.44;6246274;28;20049;-70
2023/12/06 07:34:03;;;;;;;5.78;3.70;;;;;;;8.50;24.67;97158.56;6246367;28;20048;-70
2023/12/06 07:37:06;;;;;;;7.20;3.47;;;;;;;8.92;23.38;97165.13;6245989;28;20049;-71
2023/12/06 07:40:11;;;;;;;6.20;3.55;;;;;;;8.63;22.96;97178.91;6247133;28;20041;-70
2023/12/06 07:43:17;;;;;;;4.05;3.22;;;;;;;8.38;22.55;97179.28;6247268;28;20392;-70
2023/12/06 07:46:19;;;;;;;5.47;3.38;;;;;;;7.93;22.13;97184.16;6247484;28;20044;-70
2023/12/06 07:49:23;;;;;;;5.05;3.58;;;;;;;7.59;22.30;97179.72;6247167;28;20045;-71
2023/12/06 07:52:26;;;;;;;5.30;3.35;;;;;;;7.86;22.49;97195.84;6246987;28;20446;-71
2023/12/06 07:55:30;;;;;;;5.50;3.97;;;;;;;8.71;22.17;97208.22;6247005;28;20542;-70
2023/12/06 07:58:39;;;;;;;4.10;2.67;;;;;;;9.14;21.43;97212.06;6246931;28;20045;-70
2023/12/06 08:01:45;;;;;;;7.70;4.60;;;;;;;8.72;20.29;97205.53;6246594;28;20034;-70
2023/12/06 08:04:48;;;;;;;;;;;;;;;8.90;21.59;97214.19;6246512;28;20049;-72
2023/12/06 08:07:58;;;;;;;4.72;3.08;;;;;;;8.83;20.55;97225.09;6229348;28;19917;-71
2023/12/06 08:11:04;;;;;;;5.57;3.50;;;;;;;9.66;20.74;97226.75;6246508;28;20041;-70
2023/12/06 08:14:07;;;;;;;5.57;3.70;;;;;;;10.49;20.45;97219.41;6246384;28;20041;-71
2023/12/06 08:17:14;;;;;;;5.20;3.50;;;;;;;11.30;19.56;97225.03;6246336;28;20045;-72
2023/12/06 08:20:18;;;;;;;5.68;3.28;;;;;;;10.07;19.67;97228.81;6246690;28;20084;-71
2023/12/06 08:23:27;;;;;;;5.65;3.47;;;;;;;8.75;21.30;97225.50;6229241;28;20061;-71
2023/12/06 08:26:36;;;;;;;4.85;3.65;;;;;;;9.54;20.98;97219.53;6246771;28;20033;-71
2023/12/06 08:29:38;;;;;;;4.10;2.80;;;;;;;10.64;20.39;97229.00;6245028;28;20144;-71
2023/12/06 08:32:46;;;;;;;5.20;3.70;;;;;;;12.33;19.35;97239.56;6245918;28;20046;-71
2023/12/06 08:35:51;;;;;;;4.95;3.38;;;;;;;14.55;17.92;97238.94;6244908;28;20478;-71
2023/12/06 08:38:55;;;;;;;4.10;3.17;;;;;;;15.09;17.19;97235.72;6245061;28;20060;-70
2023/12/06 08:42:01;;;;;;;6.13;3.67;;;;;;;14.15;17.65;97239.22;6228296;28;20411;-71
2023/12/06 08:45:10;;;;;;;4.90;3.53;;;;;;;14.78;17.45;97240.72;6245487;28;20044;-71
2023/12/06 08:48:18;;;;;;;4.45;3.20;;;;;;;15.99;16.63;97241.00;6245579;28;20042;-71
2023/12/06 08:51:22;;;;;;;3.78;3.08;;;;;;;16.26;16.34;97256.50;6245521;28;20053;-71
2023/12/06 08:54:27;;;;;;;4.30;3.17;;;;;;;15.41;16.52;97240.31;6245265;28;20522;-72
2023/12/06 08:57:32;;;;;;;4.75;3.22;;;;;;;13.13;17.91;97250.00;6244620;28;20152;-70
2023/12/06 09:00:39;;;;;;;5.10;3.85;;;;;;;10.99;19.46;97249.75;6245417;28;20038;-71
2023/12/06 09:03:43;;;;;;;5.43;3.92;;;;;;;8.92;20.79;97249.09;6243738;28;20385;-71
2023/12/06 09:06:54;;;;;;;6.47;3.20;;;;;;;6.91;21.80;97255.25;6245470;28;20122;-70
2023/12/06 09:10:00;;;;;;;3.97;2.85;;;;;;;5.94;22.78;97255.84;6244414;28;20057;-72
2023/12/06 09:13:02;;;;;;;4.65;3.40;;;;;;;5.45;23.49;97260.34;6244067;28;20058;-71
2023/12/06 09:16:07;;;;;;;5.40;2.95;;;;;;;4.01;24.33;97267.13;6245015;28;20041;-71
2023/12/06 09:19:11;;;;;;;5.25;3.20;;;;;;;3.12;24.88;97261.22;6244855;28;20092;-71
2023/12/06 09:22:15;;;;;;;5.40;3.28;;;;;;;3.45;24.64;97269.75;6244288;28;20053;-71
2023/12/06 09:25:20;;;;;;;5.28;3.38;;;;;;;2.69;25.27;97263.28;6244729;28;20045;-71
2023/12/06 09:28:26;;;;;;;;;;;;;;;3.04;25.57;97277.03;6245243;28;20426;-70
2023/12/06 09:31:30;;;;;;;6.07;3.30;;;;;;;4.39;23.03;97283.28;6243809;28;19928;-72
2023/12/06 09:34:34;;;;;;;5.20;2.85;;;;;;;5.78;21.92;97274.72;6243867;28;20515;-72
2023/12/06 09:37:43;;;;;;;4.28;3.15;;;;;;;7.13;20.99;97289.16;6244576;28;20458;-72
2023/12/06 09:40:44;;;;;;;6.80;4.15;;;;;;;8.08;20.21;97301.34;6244263;28;20132;-72
2023/12/06 09:43:50;;;;;;;3.97;2.97;;;;;;;8.49;19.54;97297.63;6244623;28;20466;-71
2023/12/06 09:47:12;;;;;;;4.93;2.97;;;;;;;8.73;19.40;97300.81;6245027;28;20049;-72
2023/12/06 09:50:19;;;;;;;4.30;3.33;;;;;;;8.59;19.53;97303.28;6226246;28;20048;-72
2023/12/06 09:53:21;;;;;;;4.97;3.75;;;;;;;8.70;19.80;97300.97;6243997;28;20064;-71
2023/12/06 09:56:27;;;;;;;8.35;4.15;;;;;;;9.46;19.59;97308.44;6243972;28;20522;-71
2023/12/06 09:59:32;;;;;;;5.45;3.20;;;;;;;9.83;18.92;97305.50;6244476;28;20041;-71
2023/12/06 10:02:50;;;;;;;5.10;2.97;;;;;;;6.68;20.51;97317.25;6244483;28;20045;-72
2023/12/06 10:05:59;;;;;;;3.80;3.00;;;;;;;2.92;24.04;97321.56;6243908;28;20053;-70
2023/12/06 10:09:00;;;;;;;7.03;4.22;;;;;;;0.22;26.87;97319.69;6227200;28;20049;-71
2023/12/06 10:12:11;;;;;;;5.10;2.75;;;;;;;-1.53;28.74;97314.28;6244669;28;20518;-72
2023/12/06 10:15:23;;;;;;;6.85;3.85;;;;;;;-2.69;30.19;97325.47;6227309;28;20050;-72
2023/12/06 10:18:27;;;;;;;6.70;3.45;;;;;;;-3.80;31.70;97336.13;6243590;28;20049;-71
2023/12/06 10:21:34;;;;;;;5.22;3.55;;;;;;;-4.54;32.62;97335.22;6244149;28;20507;-72
2023/12/06 10:24:46;;;;;;;6.47;3.55;;;;;;;-5.30;33.35;97346.94;6244880;28;20041;-72
2023/12/06 10:27:50;;;;;;;4.85;3.00;;;;;;;-5.82;33.72;97346.63;6249367;28;20045;-71
2023/12/06 10:31:03;;;;;;;7.75;3.38;;;;;;;-6.27;34.34;97336.91;6248290;28;20160;-71
2023/12/06 10:34:09;;;;;;;5.63;3.53;;;;;;;-6.69;35.52;97348.47;6248764;28;20119;-70
2023/12/06 10:37:20;;;;;;;8.18;3.83;;;;;;;-7.24;35.77;97349.56;6231169;28;20053;-71
2023/12/06 10:40:29;;;;;;;8.18;3.92;;;;;;;-7.66;36.97;97349.00;6230425;28;20048;-70
2023/12/06 10:43:38;;;;;;;9.55;4.30;;;;;;;-7.86;37.12;97366.59;6247739;28;20049;-70
2023/12/06 10:46:41;;;;;;;7.05;4.00;;;;;;;-8.06;37.45;97371.38;6248094;28;20180;-70
2023/12/06 10:49:46;;;;;;;6.65;4.00;;;;;;;-8.28;37.74;97373.56;6248471;28;20084;-71
2023/12/06 10:52:49;;;;;;;8.45;4.72;;;;;;;-8.51;38.17;97374.91;6247406;28;20045;-71
2023/12/06 10:55:50;;;;;;;10.18;4.95;;;;;;;-8.63;38.36;97384.06;6247609;28;20052;-71
2023/12/06 10:58:53;;;;;;;8.18;4.82;;;;;;;-8.79;38.99;97387.16;6248022;28;20139;-71
2023/12/06 11:01:57;;;;;;;8.05;4.55;;;;;;;-8.86;39.05;97398.94;6248256;28;20487;-71
2023/12/06 11:05:05;;;;;;;14.68;6.70;;;;;;;-8.93;39.67;97396.22;6247227;28;20185;-72
2023/12/06 11:08:15;;;;;;;15.60;8.70;;;;;;;-9.07;40.00;97393.41;6247137;28;20052;-70
2023/12/06 11:12:01;;;;;;;11.07;6.57;;;;;;;-9.26;40.35;97392.16;6247192;28;20054;-71
2023/12/06 11:15:34;;;;;;;8.98;4.90;;;;;;;-9.46;41.05;97388.34;6147675;28;20481;-71
2023/12/06 11:18:48;;;;;;;8.30;5.07;;;;;;;-9.51;40.75;97401.84;6165200;28;20045;-70
2023/12/06 11:21:55;;;;;;;7.07;4.85;;;;;;;-9.66;40.90;97416.75;6247783;28;20418;-70
2023/12/06 11:25:02;;;;;;;7.18;4.75;;;;;;;-9.85;41.28;97429.88;6247481;28;20045;-71
2023/12/06 11:28:13;;;;;;;10.73;4.82;;;;;;;-10.04;41.65;97411.66;6247486;28;20073;-70
2023/12/06 11:31:17;;;;;;;8.38;4.47;;;;;;;-10.02;41.78;97453.28;6247514;28;20037;-71
2023/12/06 11:34:34;;;;;;;9.07;4.35;;;;;;;-10.15;42.33;97456.34;6247242;28;20050;-70
2023/12/06 11:37:37;;;;;;;6.53;3.95;;;;;;;-10.25;42.69;97474.72;6246433;28;20053;-71
2023/12/06 11:40:53;;;;;;;6.45;3.92;;;;;;;-10.43;43.75;97473.47;6247277;28;20041;-71
2023/12/06 11:43:55;;;;;;;8.13;3.95;;;;;;;-10.76;43.74;97470.00;6245898;28;20420;-71
2023/12/06 11:46:59;;;;;;;7.78;4.15;;;;;;;-10.91;43.72;97471.28;6247165;28;20048;-71
2023/12/06 11:50:03;;;;;;;6.28;3.78;;;;;;;-10.96;44.24;97477.06;6247081;28;20438;-71
2023/12/06 11:53:08;;;;;;;6.90;3.97;;;;;;;-11.30;44.30;97451.53;6246556;28;20503;-72
2023/12/06 11:56:09;;;;;;;5.00;4.00;;;;;;;-11.25;44.25;97473.69;6246111;28;20060;-70
2023/12/06 11:59:13;;;;;;;;;;;;;;;-11.28;44.14;97474.44;6247030;28;20053;-71
2023/12/06 12:02:21;;;;;;;9.93;5.25;;;;;;;-11.37;44.51;97475.03;6246420;28;19928;-70
2023/12/06 12:05:25;;;;;;;9.82;3.78;;;;;;;-11.48;44.97;97465.38;6246400;28;20064;-71
2023/12/06 12:08:30;;;;;;;13.90;5.50;;;;;;;-11.45;45.14;97486.63;6229093;28;20455;-71
2023/12/06 12:11:34;;;;;;;12.23;7.30;;;;;;;-11.60;45.53;97498.88;6246610;28;20068;-72
2023/12/06 12:14:37;;;;;;;29.23;11.95;;;;;;;-11.65;45.54;97493.63;6245935;28;20076;-70
2023/12/06 12:17:39;;;;;;;12.85;7.25;;;;;;;-11.74;45.94;97492.50;6245218;28;20111;-72
2023/12/06 12:20:43;;;;;;;9.48;4.93;;;;;;;-11.76;46.24;97500.91;6246276;28;20045;-70
2023/12/06 12:23:47;;;;;;;13.40;5.90;;;;;;;-11.91;46.04;97495.38;6246158;28;20037;-71
2023/12/06 12:26:51;;;;;;;;;;;;;;;-11.81;45.91;97522.72;6246557;28;20045;-69
2023/12/06 12:29:56;;;;;;;21.50;8.73;;;;;;;-12.07;46.42;97529.53;6260479;28;20390;-70
2023/12/06 12:33:03;;;;;;;14.80;7.45;;;;;;;-12.23;46.81;97533.22;6270632;28;20041;-70
2023/12/06 12:36:08;;;;;;;14.43;7.30;;;;;;;-12.38;46.82;97534.34;6270571;28;20045;-71
2023/12/06 12:39:16;;;;;;;15.68;6.47;;;;;;;-12.40;47.04;97541.91;6270359;28;20522;-71
2023/12/06 12:42:20;;;;;;;13.30;6.55;;;;;;;-12.45;47.10;97545.97;6270467;28;20057;-70
2023/12/06 12:45:28;;;;;;;8.27;4.80;;;;;;;-12.45;46.78;97549.38;6270244;28;20045;-72
2023/12/06 12:48:30;;;;;;;9.10;4.43;;;;;;;-12.41;47.07;97555.41;6267956;28;20053;-70
2023/12/06 12:51:38;;;;;;;10.52;5.35;;;;;;;-12.28;47.58;97557.56;6269798;28;20037;-70
2023/12/06 12:54:44;;;;;;;7.43;4.07;;;;;;;-12.27;47.36;97566.88;6260341;28;20048;-71
2023/12/06 12:57:51;;;;;;;7.55;5.00;;;;;;;-12.39;47.61;97556.31;6270149;28;20045;-70
2023/12/06 13:00:55;;;;;;;11.18;6.18;;;;;;;-12.46;47.92;97560.28;6269697;28;20041;-70
2023/12/06 13:03:56;;;;;;;14.98;6.55;;;;;;;-12.48;48.13;97564.47;6269882;28;20037;-71
2023/12/06 13:07:02;;;;;;;12.27;5.93;;;;;;;-12.53;47.94;97560.91;6269983;28;20055;-70
2023/12/06 13:10:08;;;;;;;18.95;6.03;;;;;;;-12.56;48.14;97577.69;6269248;28;20606;-70
2023/12/06 13:13:09;;;;;;;10.10;5.53;;;;;;;-12.55;48.25;97569.25;6270121;28;20048;-70
2023/12/06 13:16:13;;;;;;;;;;;;;;;-12.46;48.28;97584.78;6270284;28;20049;-69
2023/12/06 13:19:16;;;;;;;6.80;3.70;;;;;;;-12.51;48.40;97594.78;6269504;28;20019;-70
2023/12/06 13:22:18;;;;;;;8.73;4.38;;;;;;;-12.58;48.69;97612.25;6268518;28;20057;-70
2023/12/06 13:25:22;;;;;;;8.82;4.78;;;;;;;-12.73;48.50;97618.47;6269099;28;20410;-70
2023/12/06 13:28:25;;;;;;;8.27;4.68;;;;;;;-12.79;48.97;97615.72;6271683;28;20422;-71
2023/12/06 13:31:26;;;;;;;14.43;6.80;;;;;;;-12.84;48.72;97616.34;6294357;28;20040;-71
2023/12/06 13:34:30;;;;;;;;;;;;;;;-12.91;48.39;97620.28;6294869;28;20045;-69
2023/12/06 13:37:36;;;;;;;13.70;6.53;;;;;;;-13.18;48.64;97589.72;6293908;28;20390;-71
2023/12/06 13:40:39;;;;;;;9.70;4.55;;;;;;;-13.02;48.94;97611.41;6294102;28;20052;-70
2023/12/06 13:43:46;;;;;;;13.05;4.90;;;;;;;-13.05;48.66;97612.16;6293272;28;20044;-71
2023/12/06 13:46:48;;;;;;;12.50;4.65;;;;;;;-13.03;49.17;97619.81;6293779;28;20055;-72
2023/12/06 13:49:49;;;;;;;5.13;3.95;;;;;;;-12.97;49.60;97609.94;6294017;28;20071;-72
2023/12/06 13:52:55;;;;;;;4.72;3.38;;;;;;;-12.95;49.28;97638.72;6292259;28;20049;-72
2023/12/06 13:55:56;;;;;;;9.13;4.05;;;;;;;-13.18;50.12;97643.75;6268603;28;20045;-71
2023/12/06 13:59:02;;;;;;;9.88;5.32;;;;;;;-13.25;49.96;97651.88;6270986;28;20138;-70
2023/12/06 14:02:04;;;;;;;14.70;5.93;;;;;;;-13.14;50.03;97652.31;6276605;28;20099;-71
2023/12/06 14:05:06;;;;;;;5.43;3.08;;;;;;;-13.02;50.38;97657.00;6276783;28;20433;-70
2023/12/06 14:08:16;;;;;;;2.85;2.05;;;;;;;-12.90;50.54;97652.44;6277573;28;20044;-70
2023/12/06 14:11:20;;;;;;;3.88;2.38;;;;;;;-12.92;49.98;97654.03;6276828;28;20052;-71
2023/12/06 14:14:24;;;;;;;8.63;3.38;;;;;;;-13.27;50.74;97670.38;6277352;28;20041;-70
2023/12/06 14:17:29;;;;;;;7.10;3.35;;;;;;;-13.39;51.08;97675.81;6276354;28;20137;-70
2023/12/06 14:20:33;;;;;;;5.70;3.35;;;;;;;-13.48;51.47;97676.31;6277346;28;20418;-71
2023/12/06 14:23:38;;;;;;;5.97;4.07;;;;;;;-13.37;51.57;97676.75;6277157;28;20048;-71
2023/12/06 14:26:40;;;;;;;7.05;3.80;;;;;;;-13.40;51.52;97689.28;6276615;28;20140;-72
2023/12/06 14:29:47;;;;;;;11.35;4.43;;;;;;;-13.48;51.39;97695.69;6246878;28;20053;-71